createdAt,value
2022-08-07T00:00:53.169Z,22.07
2022-08-07T00:03:59.669Z,22.05
2022-08-07T00:07:09.574Z,22.07
2022-08-07T00:10:27.231Z,22.11
2022-08-07T00:13:37.359Z,22.06
2022-08-07T00:16:47.533Z,22.09
2022-08-07T00:20:00.993Z,22.12
2022-08-07T00:23:11.103Z,22.13
2022-08-07T00:26:31.407Z,22.10
2022-08-07T00:29:42.456Z,22.08
2022-08-07T00:32:53.080Z,22.08
2022-08-07T00:35:56.518Z,22.13
2022-08-07T00:39:01.701Z,22.15
2022-08-07T00:42:05.446Z,22.17
2022-08-07T00:45:16.066Z,22.29
2022-08-07T00:48:19.519Z,22.27
2022-08-07T00:51:58.304Z,22.24
2022-08-07T00:54:58.859Z,22.28
2022-08-07T00:58:12.883Z,22.21
2022-08-07T01:01:21.402Z,22.18
2022-08-07T01:04:24.643Z,22.16
2022-08-07T01:07:29.536Z,22.10
2022-08-07T01:10:33.633Z,22.06
2022-08-07T01:13:37.795Z,22.03
2022-08-07T01:16:43.245Z,22.05
2022-08-07T01:19:54.616Z,22.02
2022-08-07T01:23:12.452Z,22.00
2022-08-07T01:26:19.522Z,22.04
2022-08-07T01:29:27.873Z,22.06
2022-08-07T01:32:37.144Z,22.03
2022-08-07T01:35:53.074Z,22.01
2022-08-07T01:38:57.249Z,22.02
2022-08-07T01:42:36.861Z,22.05
2022-08-07T01:45:26.640Z,22.10
2022-08-07T01:48:46.809Z,22.17
2022-08-07T01:52:02.327Z,22.20
2022-08-07T01:55:10.665Z,22.18
2022-08-07T01:58:33.049Z,22.26
2022-08-07T02:02:02.317Z,22.25
2022-08-07T02:05:16.077Z,22.34
2022-08-07T02:08:42.386Z,22.34
2022-08-07T02:12:03.015Z,22.37
2022-08-07T02:15:12.585Z,22.39
2022-08-07T02:18:19.069Z,22.42
2022-08-07T02:21:23.766Z,22.41
2022-08-07T02:24:30.103Z,22.48
2022-08-07T02:27:34.502Z,22.50
2022-08-07T02:30:39.485Z,22.59
2022-08-07T02:34:01.687Z,22.60
2022-08-07T02:37:09.734Z,22.58
2022-08-07T02:40:30.782Z,22.65
2022-08-07T02:43:39.693Z,22.66
2022-08-07T02:46:46.882Z,22.65
2022-08-07T02:49:59.631Z,22.65
2022-08-07T02:53:10.911Z,22.59
2022-08-07T02:56:24.583Z,22.63
2022-08-07T02:59:32.356Z,22.61
2022-08-07T03:02:37.602Z,22.59
2022-08-07T03:05:57.235Z,22.53
2022-08-07T03:09:05.247Z,22.46
2022-08-07T03:12:16.141Z,22.42
2022-08-07T03:15:47.535Z,22.37
2022-08-07T03:18:52.773Z,22.37
2022-08-07T03:21:59.164Z,22.37
2022-08-07T03:25:04.922Z,22.32
2022-08-07T03:28:38.294Z,22.29
2022-08-07T03:31:46.459Z,22.40
2022-08-07T03:35:00.889Z,22.40
2022-08-07T03:38:21.298Z,22.38
2022-08-07T03:41:42.051Z,22.41
2022-08-07T03:44:53.510Z,22.37
2022-08-07T03:48:03.268Z,22.38
2022-08-07T03:51:07.959Z,22.40
2022-08-07T03:54:35.139Z,22.36
2022-08-07T03:58:35.122Z,22.34
2022-08-07T04:01:14.503Z,22.49
2022-08-07T04:04:21.479Z,22.47
2022-08-07T04:07:36.112Z,22.47
2022-08-07T04:10:54.129Z,22.51
2022-08-07T04:14:37.690Z,22.48
2022-08-07T04:18:56.893Z,22.51
2022-08-07T04:21:00.828Z,22.55
2022-08-07T04:24:07.651Z,22.56
2022-08-07T04:27:20.441Z,22.38
2022-08-07T04:30:35.726Z,22.45
2022-08-07T04:33:54.799Z,22.51
2022-08-07T04:36:58.474Z,22.47
2022-08-07T04:40:04.558Z,22.52
2022-08-07T04:43:11.689Z,22.44
2022-08-07T04:47:04.958Z,22.51
2022-08-07T04:50:43.665Z,22.70
2022-08-07T04:54:08.390Z,22.82
2022-08-07T04:58:11.333Z,22.86
2022-08-07T05:01:13.636Z,22.66
2022-08-07T05:04:31.398Z,22.76
2022-08-07T05:07:48.099Z,22.76
2022-08-07T05:11:02.566Z,22.68
2022-08-07T05:14:55.368Z,22.63
2022-08-07T05:17:51.727Z,22.73
2022-08-07T05:21:00.419Z,22.83
2022-08-07T05:24:08.778Z,22.79
2022-08-07T05:28:01.930Z,22.79
2022-08-07T05:30:41.187Z,22.68
2022-08-07T05:34:01.376Z,22.70
2022-08-07T05:37:12.737Z,22.72
2022-08-07T05:40:20.469Z,22.69
2022-08-07T05:43:49.705Z,22.64
2022-08-07T05:46:52.089Z,22.66
2022-08-07T05:49:58.124Z,22.66
2022-08-07T05:53:02.554Z,22.53
2022-08-07T05:56:12.401Z,22.26
2022-08-07T05:59:23.051Z,22.07
2022-08-07T06:02:33.678Z,21.84
2022-08-07T06:05:38.296Z,21.23
2022-08-07T06:08:44.840Z,20.91
2022-08-07T06:11:52.949Z,20.71
2022-08-07T06:15:05.085Z,20.58
2022-08-07T06:18:08.619Z,20.41
2022-08-07T06:22:15.028Z,20.27
2022-08-07T06:24:46.309Z,20.31
2022-08-07T06:31:47.054Z,20.63
2022-08-07T06:34:45.809Z,20.56
2022-08-07T06:37:49.656Z,20.52
2022-08-07T06:40:59.640Z,20.33
2022-08-07T06:44:06.610Z,20.41
2022-08-07T06:47:24.922Z,20.59
2022-08-07T06:50:35.975Z,20.93
2022-08-07T06:55:28.411Z,21.29
2022-08-07T06:56:59.638Z,21.74
2022-08-07T07:00:11.806Z,21.92
2022-08-07T07:03:40.129Z,22.27
2022-08-07T07:06:39.406Z,22.55
2022-08-07T07:09:52.856Z,22.58
2022-08-07T07:13:55.892Z,22.95
2022-08-07T07:16:49.522Z,23.18
2022-08-07T07:19:59.775Z,23.45
2022-08-07T07:24:08.869Z,23.38
2022-08-07T07:26:33.330Z,23.39
2022-08-07T07:30:09.206Z,23.35
2022-08-07T07:33:11.547Z,23.31
2022-08-07T07:36:17.462Z,23.33
2022-08-07T07:39:25.614Z,23.53
2022-08-07T07:42:32.652Z,23.45
2022-08-07T07:46:36.867Z,23.38
2022-08-07T07:49:00.121Z,23.32
2022-08-07T07:52:13.045Z,23.09
2022-08-07T07:55:19.765Z,22.85
2022-08-07T07:58:23.714Z,22.65
2022-08-07T08:02:03.420Z,22.76
2022-08-07T08:04:57.623Z,23.11
2022-08-07T08:08:02.004Z,23.40
2022-08-07T08:11:16.600Z,23.72
2022-08-07T08:14:34.517Z,23.99
2022-08-07T08:17:57.097Z,24.02
2022-08-07T08:21:02.655Z,24.33
2022-08-07T08:24:36.491Z,24.51
2022-08-07T08:27:56.957Z,24.69
2022-08-07T08:31:06.601Z,25.04
2022-08-07T08:34:19.033Z,25.18
2022-08-07T08:38:01.012Z,25.44
2022-08-07T08:41:08.057Z,25.77
2022-08-07T08:44:53.358Z,25.48
2022-08-07T08:48:28.285Z,25.98
2022-08-07T08:51:49.740Z,25.70
2022-08-07T08:55:53.852Z,25.88
2022-08-07T08:58:54.467Z,26.15
2022-08-07T09:02:34.707Z,26.14
2022-08-07T09:05:56.757Z,26.56
2022-08-07T09:09:36.991Z,27.05
2022-08-07T09:12:54.857Z,27.33
2022-08-07T09:16:42.043Z,27.20
2022-08-07T09:20:34.729Z,27.72
2022-08-07T09:24:30.645Z,27.97
2022-08-07T09:28:00.217Z,28.15
2022-08-07T09:31:27.649Z,27.97
2022-08-07T09:36:02.953Z,27.52
2022-08-07T09:38:50.198Z,27.95
2022-08-07T09:42:32.992Z,27.95
2022-08-07T09:47:27.431Z,28.51
2022-08-07T09:50:00.531Z,28.41
2022-08-07T09:53:10.118Z,28.19
2022-08-07T09:56:34.119Z,28.59
2022-08-07T10:00:05.620Z,29.23
2022-08-07T10:04:05.569Z,29.15
2022-08-07T10:07:25.912Z,29.98
2022-08-07T10:11:59.724Z,30.12
2022-08-07T10:14:39.438Z,30.89
2022-08-07T10:18:36.525Z,31.78
2022-08-07T10:22:14.473Z,33.15
2022-08-07T10:25:42.062Z,32.45
2022-08-07T10:29:17.327Z,33.38
2022-08-07T10:32:59.884Z,33.74
2022-08-07T10:36:29.835Z,33.02
2022-08-07T10:39:57.653Z,32.78
2022-08-07T10:43:34.829Z,33.44
2022-08-07T10:46:48.995Z,34.01
2022-08-07T10:50:15.208Z,33.92
2022-08-07T10:53:43.917Z,34.10
2022-08-07T10:56:49.383Z,34.61
2022-08-07T11:00:09.943Z,33.95
2022-08-07T11:04:16.967Z,34.77
2022-08-07T11:07:58.388Z,35.46
2022-08-07T11:11:20.199Z,35.98
2022-08-07T11:14:45.195Z,35.45
2022-08-07T11:18:18.830Z,35.38
2022-08-07T11:21:54.545Z,34.69
2022-08-07T11:25:23.227Z,35.17
2022-08-07T11:28:53.486Z,35.13
2022-08-07T11:32:10.687Z,35.40
2022-08-07T11:35:30.641Z,34.89
2022-08-07T11:38:50.523Z,34.45
2022-08-07T11:42:18.757Z,34.42
2022-08-07T11:45:37.230Z,34.40
2022-08-07T11:49:51.563Z,34.78
2022-08-07T11:53:01.380Z,35.51
2022-08-07T11:56:28.299Z,35.68
2022-08-07T12:00:12.269Z,35.16
2022-08-07T12:03:44.561Z,36.03
2022-08-07T12:07:09.028Z,35.53
2022-08-07T12:10:35.477Z,36.19
2022-08-07T12:13:53.709Z,35.98
2022-08-07T12:17:04.313Z,36.12
2022-08-07T12:20:30.683Z,36.50
2022-08-07T12:24:06.329Z,37.11
2022-08-07T12:27:18.653Z,36.22
2022-08-07T12:30:39.189Z,37.37
2022-08-07T12:34:00.676Z,36.96
2022-08-07T12:37:08.488Z,37.31
2022-08-07T12:40:46.351Z,36.92
2022-08-07T12:44:02.907Z,36.31
2022-08-07T12:47:31.120Z,35.74
2022-08-07T12:50:58.051Z,35.20
2022-08-07T12:54:36.396Z,34.69
2022-08-07T12:57:29.924Z,34.16
2022-08-07T13:00:54.726Z,33.47
2022-08-07T13:04:04.997Z,33.08
2022-08-07T13:08:14.647Z,32.85
2022-08-07T13:12:02.242Z,32.58
2022-08-07T13:15:41.274Z,33.03
2022-08-07T13:19:45.580Z,32.30
2022-08-07T13:22:53.751Z,32.42
2022-08-07T13:26:16.065Z,32.33
2022-08-07T13:29:34.635Z,31.81
2022-08-07T13:32:43.231Z,31.92
2022-08-07T13:36:17.517Z,31.89
2022-08-07T13:40:34.232Z,31.66
2022-08-07T13:42:58.211Z,31.44
2022-08-07T13:46:16.439Z,31.44
2022-08-07T13:50:33.343Z,31.69
2022-08-07T13:52:47.010Z,31.68
2022-08-07T13:55:54.613Z,31.70
2022-08-07T13:59:05.634Z,31.74
2022-08-07T14:02:19.399Z,31.03
2022-08-07T14:05:37.444Z,31.61
2022-08-07T14:08:53.727Z,31.35
2022-08-07T14:12:07.462Z,31.46
2022-08-07T14:15:31.640Z,31.56
2022-08-07T14:18:45.833Z,31.40
2022-08-07T14:22:01.717Z,31.49
2022-08-07T14:25:14.677Z,31.48
2022-08-07T14:31:42.948Z,31.04
2022-08-07T14:38:31.355Z,30.97
2022-08-07T14:42:19.942Z,31.05
2022-08-07T14:45:22.389Z,30.94
2022-08-07T14:48:33.068Z,31.13
2022-08-07T14:52:02.801Z,31.49
2022-08-07T14:54:59.015Z,31.21
2022-08-07T14:58:04.159Z,31.37
2022-08-07T15:01:21.669Z,31.40
2022-08-07T15:04:26.274Z,31.58
2022-08-07T15:07:47.383Z,31.76
2022-08-07T15:10:59.228Z,31.36
2022-08-07T15:14:10.087Z,31.20
2022-08-07T15:17:17.117Z,30.93
2022-08-07T15:20:30.678Z,31.40
2022-08-07T15:25:15.910Z,31.43
2022-08-07T15:27:19.291Z,31.56
2022-08-07T15:30:28.597Z,31.61
2022-08-07T15:33:42.660Z,31.87
2022-08-07T15:37:02.812Z,31.80
2022-08-07T15:40:13.975Z,31.60
2022-08-07T15:53:51.574Z,31.71
2022-08-07T15:57:01.465Z,31.75
2022-08-07T16:00:06.759Z,31.92
2022-08-07T16:03:21.825Z,32.11
2022-08-07T16:06:36.731Z,32.27
2022-08-07T16:09:56.219Z,32.19
2022-08-07T16:13:57.587Z,32.09
2022-08-07T16:17:14.978Z,32.28
2022-08-07T16:22:01.419Z,32.17
2022-08-07T16:24:36.200Z,32.15
2022-08-07T16:27:49.706Z,31.99
2022-08-07T16:31:51.754Z,31.88
2022-08-07T16:34:49.618Z,31.77
2022-08-07T16:38:57.355Z,31.34
2022-08-07T16:41:57.239Z,31.29
2022-08-07T16:45:14.884Z,31.04
2022-08-07T16:49:04.045Z,31.00
2022-08-07T16:52:51.052Z,30.89
2022-08-07T16:56:00.166Z,30.64
2022-08-07T16:59:17.642Z,30.53
2022-08-07T17:02:53.691Z,30.31
2022-08-07T17:06:31.454Z,30.31
2022-08-07T17:14:19.357Z,29.93
2022-08-07T17:44:42.783Z,29.01
2022-08-07T17:48:04.569Z,28.87
2022-08-07T17:58:54.306Z,28.52
2022-08-07T18:02:25.792Z,28.42
2022-08-07T18:06:09.525Z,28.39
2022-08-07T18:10:04.739Z,28.33
2022-08-07T18:16:36.362Z,28.18
2022-08-07T18:21:07.005Z,28.18
2022-08-07T18:24:02.056Z,28.19
2022-08-07T18:27:17.389Z,28.17
2022-08-07T18:30:33.050Z,28.09
2022-08-07T18:38:59.711Z,27.97
2022-08-07T18:41:45.336Z,27.79
2022-08-07T18:59:47.564Z,27.30
2022-08-07T19:03:12.161Z,27.10
2022-08-07T19:06:53.223Z,26.98
2022-08-07T19:10:05.819Z,26.72
2022-08-07T19:13:29.414Z,26.54
2022-08-07T19:16:43.071Z,26.38
2022-08-07T19:20:29.116Z,26.21
2022-08-07T19:23:58.423Z,26.03
2022-08-07T19:31:00.217Z,25.73
2022-08-07T19:33:57.847Z,25.71
2022-08-07T19:37:17.475Z,25.62
2022-08-07T19:40:30.794Z,25.52
2022-08-07T19:43:44.118Z,25.43
2022-08-07T19:47:07.627Z,25.38
2022-08-07T19:50:45.120Z,25.30
2022-08-07T19:54:34.716Z,25.23
2022-08-07T19:58:02.349Z,25.17
2022-08-07T20:00:28.247Z,25.13
2022-08-07T20:03:36.480Z,25.04
2022-08-07T20:06:42.796Z,24.90
2022-08-07T20:10:37.975Z,24.81
2022-08-07T20:13:22.703Z,24.69
2022-08-07T20:16:36.410Z,24.59
2022-08-07T20:19:58.802Z,24.45
2022-08-07T20:23:22.955Z,24.32
2022-08-07T20:26:45.156Z,24.15
2022-08-07T20:29:59.399Z,24.03
2022-08-07T20:33:36.811Z,23.91
2022-08-07T20:36:27.254Z,23.84
2022-08-07T20:40:02.248Z,23.69
2022-08-07T20:42:58.840Z,23.57
2022-08-07T20:46:27.745Z,23.46
2022-08-07T20:50:00.447Z,23.34
2022-08-07T20:52:51.879Z,23.25
2022-08-07T20:56:01.375Z,23.23
2022-08-07T20:59:06.088Z,23.16
2022-08-07T21:02:54.372Z,23.08
2022-08-07T21:06:21.594Z,23.02
2022-08-07T21:09:52.121Z,22.91
2022-08-07T21:12:59.480Z,22.80
2022-08-07T21:16:05.258Z,22.71
2022-08-07T21:19:13.886Z,22.63
2022-08-07T21:22:20.545Z,22.58
2022-08-07T21:25:50.915Z,22.52
2022-08-07T21:29:07.061Z,22.48
2022-08-07T21:32:49.707Z,22.49
2022-08-07T21:36:12.230Z,22.53
2022-08-07T21:40:10.003Z,22.47
2022-08-07T21:43:23.081Z,22.41
2022-08-07T21:46:47.508Z,22.40
2022-08-07T21:50:32.052Z,22.38
2022-08-07T21:53:52.502Z,22.36
2022-08-07T21:57:30.889Z,22.32
2022-08-07T22:00:42.455Z,22.31
2022-08-07T22:04:09.245Z,22.24
2022-08-07T22:07:31.454Z,22.19
2022-08-07T22:10:57.314Z,22.17
2022-08-07T22:14:05.412Z,22.12
2022-08-07T22:17:20.812Z,22.10
2022-08-07T22:20:46.694Z,22.15
2022-08-07T22:23:56.738Z,22.14
2022-08-07T22:27:34.050Z,22.05
2022-08-07T22:31:45.078Z,21.97
2022-08-07T22:34:53.644Z,21.89
2022-08-07T22:38:05.443Z,21.84
2022-08-07T22:41:16.820Z,21.81
2022-08-07T22:44:25.429Z,21.76
2022-08-07T22:48:31.402Z,21.76
2022-08-07T22:51:53.801Z,21.72
2022-08-07T22:55:31.468Z,21.68
2022-08-07T22:58:55.533Z,21.57
2022-08-07T23:02:12.479Z,21.50
2022-08-07T23:06:08.709Z,21.41
2022-08-07T23:10:04.610Z,21.36
2022-08-07T23:13:19.023Z,21.27
2022-08-07T23:16:46.912Z,21.17
2022-08-07T23:20:51.710Z,21.11
2022-08-07T23:24:23.639Z,21.03
2022-08-07T23:28:20.268Z,20.90
2022-08-07T23:31:18.874Z,20.80
2022-08-07T23:35:12.069Z,20.73
2022-08-07T23:38:36.606Z,20.68
2022-08-07T23:42:21.631Z,20.76
2022-08-07T23:46:01.341Z,20.74
2022-08-07T23:49:42.026Z,20.72
2022-08-07T23:53:17.043Z,20.65
2022-08-07T23:56:41.685Z,20.59
